createdAt,value
2023-05-19T00:00:08.976Z,59.30
2023-05-19T00:01:08.942Z,59.81
2023-05-19T00:02:08.957Z,59.30
2023-05-19T00:03:09.192Z,59.00
2023-05-19T00:04:08.930Z,59.41
2023-05-19T00:05:08.891Z,60.22
2023-05-19T00:06:09.030Z,60.32
2023-05-19T00:07:08.875Z,60.53
2023-05-19T00:08:08.887Z,60.22
2023-05-19T00:09:08.870Z,59.91
2023-05-19T00:10:08.852Z,59.61
2023-05-19T00:11:08.827Z,60.12
2023-05-19T00:12:08.826Z,60.22
2023-05-19T00:13:08.831Z,60.02
2023-05-19T00:14:08.820Z,60.22
2023-05-19T00:15:08.809Z,60.12
2023-05-19T00:16:08.899Z,59.91
2023-05-19T00:17:08.789Z,60.02
2023-05-19T00:18:08.857Z,60.22
2023-05-19T00:19:08.802Z,59.30
2023-05-19T00:20:08.762Z,59.61
2023-05-19T00:21:08.734Z,59.61
2023-05-19T00:22:08.717Z,60.02
2023-05-19T00:23:08.730Z,60.12
2023-05-19T00:24:08.689Z,60.32
2023-05-19T00:25:08.682Z,60.42
2023-05-19T00:26:08.691Z,59.91
2023-05-19T00:27:08.686Z,59.91
2023-05-19T00:28:08.685Z,60.12
2023-05-19T00:29:08.645Z,60.02
2023-05-19T00:30:08.638Z,59.81
2023-05-19T00:31:08.611Z,59.81
2023-05-19T00:32:08.700Z,59.81
2023-05-19T00:33:08.679Z,59.61
2023-05-19T00:34:08.607Z,59.41
2023-05-19T00:35:08.577Z,59.00
2023-05-19T00:36:08.564Z,59.10
2023-05-19T00:37:08.576Z,59.71
2023-05-19T00:38:08.535Z,59.64
2023-05-19T00:39:08.551Z,60.14
2023-05-19T00:40:08.520Z,60.25
2023-05-19T00:41:08.507Z,59.84
2023-05-19T00:42:08.516Z,60.05
2023-05-19T00:43:08.498Z,60.05
2023-05-19T00:44:08.474Z,60.14
2023-05-19T00:45:08.480Z,59.84
2023-05-19T00:46:08.501Z,59.53
2023-05-19T00:47:08.679Z,59.53
2023-05-19T00:48:08.471Z,60.25
2023-05-19T00:49:08.433Z,60.05
2023-05-19T00:50:08.425Z,59.74
2023-05-19T00:51:08.428Z,59.94
2023-05-19T00:52:08.410Z,60.66
2023-05-19T00:53:08.404Z,60.35
2023-05-19T00:54:08.382Z,60.38
2023-05-19T00:55:08.370Z,60.58
2023-05-19T00:56:08.369Z,60.58
2023-05-19T00:57:08.333Z,60.58
2023-05-19T00:58:08.325Z,60.78
2023-05-19T00:59:08.314Z,60.58
2023-05-19T01:00:08.345Z,60.58
2023-05-19T01:01:08.339Z,60.78
2023-05-19T01:02:08.288Z,60.78
2023-05-19T01:03:08.358Z,60.48
2023-05-19T01:04:08.338Z,60.38
2023-05-19T01:05:08.306Z,60.48
2023-05-19T01:06:08.399Z,60.28
2023-05-19T01:07:08.245Z,60.78
2023-05-19T01:08:08.231Z,60.69
2023-05-19T01:09:08.221Z,60.99
2023-05-19T01:10:08.223Z,60.38
2023-05-19T01:11:08.272Z,60.28
2023-05-19T01:12:08.181Z,60.69
2023-05-19T01:13:08.184Z,60.69
2023-05-19T01:14:08.174Z,60.78
2023-05-19T01:15:08.163Z,60.58
2023-05-19T01:16:08.161Z,60.99
2023-05-19T01:17:08.124Z,61.12
2023-05-19T01:18:08.195Z,60.92
2023-05-19T01:19:08.183Z,61.22
2023-05-19T01:20:08.121Z,61.32
2023-05-19T01:21:08.082Z,61.30
2023-05-19T01:22:08.078Z,61.43
2023-05-19T01:23:08.062Z,61.22
2023-05-19T01:24:08.072Z,61.83
2023-05-19T01:25:08.050Z,61.53
2023-05-19T01:26:08.030Z,61.12
2023-05-19T01:27:08.017Z,61.22
2023-05-19T01:28:08.015Z,61.73
2023-05-19T01:29:08.015Z,61.94
2023-05-19T01:30:08.020Z,61.94
2023-05-19T01:31:07.985Z,62.04
2023-05-19T01:32:08.177Z,61.94
2023-05-19T01:33:08.120Z,62.17
2023-05-19T01:34:07.941Z,61.66
2023-05-19T01:35:07.930Z,61.87
2023-05-19T01:36:07.925Z,62.37
2023-05-19T01:37:07.963Z,62.17
2023-05-19T01:38:07.929Z,62.27
2023-05-19T01:39:07.897Z,62.27
2023-05-19T01:40:07.921Z,62.48
2023-05-19T01:41:07.867Z,62.27
2023-05-19T01:42:07.865Z,62.58
2023-05-19T01:43:07.884Z,62.78
2023-05-19T01:44:07.854Z,62.61
2023-05-19T01:45:07.831Z,62.51
2023-05-19T01:46:07.874Z,62.71
2023-05-19T01:47:07.858Z,62.40
2023-05-19T01:48:10.675Z,62.81
2023-05-19T01:49:07.824Z,63.12
2023-05-19T01:50:07.776Z,63.12
2023-05-19T01:51:07.778Z,63.02
2023-05-19T01:52:07.774Z,63.22
2023-05-19T01:53:07.768Z,63.02
2023-05-19T01:54:07.738Z,62.81
2023-05-19T01:55:07.739Z,63.02
2023-05-19T01:56:07.720Z,63.15
2023-05-19T01:57:07.734Z,63.04
2023-05-19T01:58:07.718Z,63.15
2023-05-19T01:59:07.691Z,63.45
2023-05-19T02:00:07.678Z,63.45
2023-05-19T02:01:07.732Z,63.35
2023-05-19T02:02:07.670Z,63.56
2023-05-19T02:03:07.765Z,63.56
2023-05-19T02:04:07.668Z,63.56
2023-05-19T02:05:07.626Z,63.66
2023-05-19T02:06:07.655Z,63.56
2023-05-19T02:07:07.641Z,63.66
2023-05-19T02:08:07.587Z,63.76
2023-05-19T02:09:07.593Z,63.76
2023-05-19T02:10:07.595Z,63.86
2023-05-19T02:11:07.623Z,64.07
2023-05-19T02:12:07.563Z,63.86
2023-05-19T02:13:07.540Z,63.76
2023-05-19T02:14:07.525Z,63.76
2023-05-19T02:15:07.520Z,63.96
2023-05-19T02:16:07.623Z,63.76
2023-05-19T02:17:07.508Z,64.10
2023-05-19T02:18:07.484Z,64.20
2023-05-19T02:19:08.339Z,64.20
2023-05-19T02:20:07.501Z,64.20
2023-05-19T02:21:07.497Z,64.30
2023-05-19T02:22:07.438Z,64.30
2023-05-19T02:23:07.475Z,64.40
2023-05-19T02:24:07.446Z,64.40
2023-05-19T02:25:07.430Z,64.30
2023-05-19T02:26:07.429Z,64.40
2023-05-19T02:27:07.394Z,64.54
2023-05-19T02:28:07.387Z,64.64
2023-05-19T02:29:07.366Z,64.64
2023-05-19T02:30:07.421Z,64.64
2023-05-19T02:31:07.351Z,64.95
2023-05-19T02:32:07.420Z,64.84
2023-05-19T02:33:07.370Z,64.84
2023-05-19T02:34:07.408Z,64.95
2023-05-19T02:35:07.338Z,65.15
2023-05-19T02:36:07.324Z,65.25
2023-05-19T02:37:07.279Z,65.05
2023-05-19T02:38:07.274Z,64.95
2023-05-19T02:39:07.281Z,65.05
2023-05-19T02:40:07.257Z,65.15
2023-05-19T02:41:07.252Z,65.18
2023-05-19T02:42:07.242Z,65.46
2023-05-19T02:43:07.243Z,65.56
2023-05-19T02:44:07.220Z,65.66
2023-05-19T02:45:07.205Z,65.46
2023-05-19T02:46:07.273Z,65.05
2023-05-19T02:47:07.196Z,65.39
2023-05-19T02:48:07.257Z,65.49
2023-05-19T02:49:07.206Z,65.49
2023-05-19T02:50:07.161Z,65.49
2023-05-19T02:51:07.150Z,65.49
2023-05-19T02:52:07.196Z,65.49
2023-05-19T02:53:07.183Z,65.49
2023-05-19T02:54:07.101Z,65.39
2023-05-19T02:55:07.091Z,65.28
2023-05-19T02:56:07.081Z,65.39
2023-05-19T02:57:07.092Z,65.49
2023-05-19T02:58:07.078Z,65.39
2023-05-19T02:59:07.054Z,65.49
2023-05-19T03:00:07.058Z,65.59
2023-05-19T03:01:07.038Z,65.90
2023-05-19T03:02:07.127Z,65.69
2023-05-19T03:03:07.143Z,65.49
2023-05-19T03:04:07.099Z,65.69
2023-05-19T03:05:07.000Z,65.69
2023-05-19T03:06:06.969Z,65.69
2023-05-19T03:07:06.980Z,66.03
2023-05-19T03:08:06.949Z,66.13
2023-05-19T03:09:06.950Z,66.03
2023-05-19T03:10:06.933Z,66.03
2023-05-19T03:11:06.930Z,65.93
2023-05-19T03:12:06.927Z,66.03
2023-05-19T03:13:06.910Z,65.83
2023-05-19T03:14:06.893Z,65.93
2023-05-19T03:15:06.898Z,65.93
2023-05-19T03:16:06.912Z,66.54
2023-05-19T03:17:06.902Z,66.13
2023-05-19T03:18:06.883Z,65.93
2023-05-19T03:19:06.865Z,66.34
2023-05-19T03:20:06.835Z,66.24
2023-05-19T03:21:06.840Z,66.13
2023-05-19T03:22:06.806Z,66.44
2023-05-19T03:23:06.818Z,66.03
2023-05-19T03:24:06.816Z,66.24
2023-05-19T03:25:06.781Z,66.13
2023-05-19T03:26:06.786Z,66.13
2023-05-19T03:27:06.798Z,66.24
2023-05-19T03:28:06.748Z,66.57
2023-05-19T03:29:06.738Z,66.57
2023-05-19T03:30:06.909Z,66.57
2023-05-19T03:31:06.685Z,66.67
2023-05-19T03:32:06.700Z,66.67
2023-05-19T03:33:06.743Z,66.67
2023-05-19T03:34:06.664Z,66.57
2023-05-19T03:35:06.702Z,66.47
2023-05-19T03:36:06.670Z,66.37
2023-05-19T03:37:06.656Z,66.67
2023-05-19T03:38:06.648Z,66.57
2023-05-19T03:39:06.640Z,66.57
2023-05-19T03:40:06.644Z,66.78
2023-05-19T03:41:06.611Z,66.67
2023-05-19T03:42:06.603Z,66.57
2023-05-19T03:43:06.603Z,66.88
2023-05-19T03:44:06.601Z,66.88
2023-05-19T03:45:06.550Z,67.08
2023-05-19T03:46:06.539Z,66.98
2023-05-19T03:47:06.558Z,66.78
2023-05-19T03:48:06.564Z,66.88
2023-05-19T03:49:06.552Z,66.67
2023-05-19T03:50:06.519Z,66.78
2023-05-19T03:51:06.539Z,67.29
2023-05-19T03:52:06.440Z,67.19
2023-05-19T03:53:06.432Z,66.88
2023-05-19T03:54:06.439Z,67.19
2023-05-19T03:55:06.409Z,67.40
2023-05-19T03:56:06.397Z,67.29
2023-05-19T03:57:06.408Z,67.08
2023-05-19T03:58:06.408Z,67.19
2023-05-19T03:59:06.391Z,66.67
2023-05-19T04:00:06.405Z,66.88
2023-05-19T04:01:06.403Z,66.67
2023-05-19T04:02:07.753Z,67.08
2023-05-19T04:03:06.532Z,67.29
2023-05-19T04:04:06.384Z,67.29
2023-05-19T04:05:06.357Z,67.29
2023-05-19T04:06:06.351Z,67.40
2023-05-19T04:07:06.337Z,67.49
2023-05-19T04:08:06.312Z,67.22
2023-05-19T04:09:06.262Z,67.52
2023-05-19T04:10:06.244Z,67.70
2023-05-19T04:11:06.245Z,67.70
2023-05-19T04:12:06.262Z,67.70
2023-05-19T04:13:06.238Z,67.73
2023-05-19T04:14:06.207Z,67.94
2023-05-19T04:15:06.214Z,68.04
2023-05-19T04:16:06.253Z,68.11
2023-05-19T04:17:06.194Z,68.11
2023-05-19T04:18:06.194Z,68.21
2023-05-19T04:19:06.253Z,68.01
2023-05-19T04:20:06.148Z,68.32
2023-05-19T04:21:06.136Z,68.32
2023-05-19T04:22:06.172Z,68.21
2023-05-19T04:23:06.118Z,68.01
2023-05-19T04:24:06.120Z,68.11
2023-05-19T04:25:06.097Z,68.62
2023-05-19T04:26:06.099Z,68.62
2023-05-19T04:27:06.171Z,68.62
2023-05-19T04:28:06.056Z,68.83
2023-05-19T04:29:06.056Z,69.13
2023-05-19T04:30:06.045Z,69.13
2023-05-19T04:31:06.079Z,69.17
2023-05-19T04:32:06.022Z,69.27
2023-05-19T04:33:06.018Z,69.47
2023-05-19T04:34:06.008Z,69.65
2023-05-19T04:35:05.990Z,69.54
2023-05-19T04:36:05.993Z,69.65
2023-05-19T04:37:05.986Z,69.68
2023-05-19T04:38:05.957Z,69.47
2023-05-19T04:39:05.943Z,69.54
2023-05-19T04:40:05.953Z,69.24
2023-05-19T04:41:05.937Z,68.73
2023-05-19T04:42:05.915Z,68.11
2023-05-19T04:43:05.896Z,68.11
2023-05-19T04:44:05.886Z,68.01
2023-05-19T04:45:05.889Z,67.87
2023-05-19T04:46:05.924Z,67.87
2023-05-19T04:47:05.879Z,68.28
2023-05-19T04:48:05.896Z,68.18
2023-05-19T04:49:05.832Z,68.59
2023-05-19T04:50:05.867Z,68.38
2023-05-19T04:51:05.821Z,68.28
2023-05-19T04:52:05.822Z,68.18
2023-05-19T04:53:05.792Z,68.79
2023-05-19T04:54:05.806Z,68.79
2023-05-19T04:55:05.785Z,68.90
2023-05-19T04:56:05.772Z,68.49
2023-05-19T04:57:05.755Z,68.90
2023-05-19T04:58:05.752Z,69.10
2023-05-19T04:59:05.742Z,69.10
2023-05-19T05:00:05.726Z,68.90
2023-05-19T05:01:05.728Z,68.79
2023-05-19T05:02:05.784Z,68.59
2023-05-19T05:03:05.790Z,68.59
2023-05-19T05:04:05.809Z,67.84
2023-05-19T05:05:05.665Z,67.54
2023-05-19T05:06:05.655Z,67.23
2023-05-19T05:07:05.644Z,67.13
2023-05-19T05:08:05.917Z,67.33
2023-05-19T05:09:05.635Z,67.74
2023-05-19T05:10:05.621Z,68.15
2023-05-19T05:11:05.612Z,68.15
2023-05-19T05:12:05.591Z,67.94
2023-05-19T05:13:05.599Z,67.84
2023-05-19T05:14:05.567Z,67.71
2023-05-19T05:15:05.563Z,67.50
2023-05-19T05:16:05.558Z,67.10
2023-05-19T05:17:05.524Z,66.89
2023-05-19T05:18:05.575Z,66.78
2023-05-19T05:19:05.558Z,66.78
2023-05-19T05:20:05.513Z,66.89
2023-05-19T05:21:05.492Z,67.19
2023-05-19T05:22:05.507Z,67.40
2023-05-19T05:23:05.493Z,68.01
2023-05-19T05:24:05.461Z,68.39
2023-05-19T05:25:05.472Z,68.42
2023-05-19T05:26:05.437Z,67.88
2023-05-19T05:27:05.442Z,67.57
2023-05-19T05:28:05.500Z,67.37
2023-05-19T05:29:05.406Z,67.07
2023-05-19T05:30:05.390Z,67.07
2023-05-19T05:31:05.380Z,66.96
2023-05-19T05:32:05.416Z,66.75
2023-05-19T05:33:05.485Z,66.75
2023-05-19T05:34:05.367Z,66.55
2023-05-19T05:35:05.343Z,66.55
2023-05-19T05:36:05.350Z,67.07
2023-05-19T05:37:05.337Z,67.27
2023-05-19T05:38:05.332Z,67.16
2023-05-19T05:39:05.303Z,66.66
2023-05-19T05:40:05.310Z,66.11
2023-05-19T05:41:05.309Z,66.01
2023-05-19T05:42:05.271Z,65.80
2023-05-19T05:43:05.256Z,65.70
2023-05-19T05:44:05.242Z,65.40
2023-05-19T05:45:05.233Z,65.19
2023-05-19T05:46:05.347Z,65.09
2023-05-19T05:47:05.299Z,65.60
2023-05-19T05:48:05.247Z,65.80
2023-05-19T05:49:05.304Z,65.91
2023-05-19T05:50:05.320Z,65.70
2023-05-19T05:51:05.279Z,65.09
2023-05-19T05:52:06.815Z,65.09
2023-05-19T05:53:05.150Z,65.16
2023-05-19T05:54:05.164Z,64.86
2023-05-19T05:55:05.150Z,64.86
2023-05-19T05:56:05.126Z,64.65
2023-05-19T05:57:05.110Z,64.14
2023-05-19T05:58:05.103Z,64.04
2023-05-19T05:59:05.118Z,63.73
2023-05-19T06:00:05.126Z,63.73
2023-05-19T06:01:05.074Z,63.70
2023-05-19T06:02:05.147Z,64.01
2023-05-19T06:03:05.209Z,63.70
2023-05-19T06:04:05.062Z,63.49
2023-05-19T06:05:05.056Z,63.60
2023-05-19T06:06:05.192Z,63.49
2023-05-19T06:07:05.005Z,63.49
2023-05-19T06:08:05.024Z,63.40
2023-05-19T06:09:05.001Z,63.29
2023-05-19T06:10:04.984Z,63.29
2023-05-19T06:11:04.978Z,63.19
2023-05-19T06:12:04.970Z,62.76
2023-05-19T06:13:04.953Z,62.78
2023-05-19T06:14:04.968Z,62.76
2023-05-19T06:15:04.932Z,62.96
2023-05-19T06:16:04.957Z,62.96
2023-05-19T06:17:04.903Z,63.16
2023-05-19T06:18:04.945Z,63.16
2023-05-19T06:19:04.955Z,63.06
2023-05-19T06:20:04.871Z,62.85
2023-05-19T06:21:04.869Z,62.76
2023-05-19T06:22:04.860Z,62.76
2023-05-19T06:23:04.865Z,62.96
2023-05-19T06:24:04.848Z,63.06
2023-05-19T06:25:04.816Z,62.85
2023-05-19T06:26:04.825Z,62.96
2023-05-19T06:27:04.794Z,62.52
2023-05-19T06:28:04.809Z,62.62
2023-05-19T06:29:04.795Z,62.62
2023-05-19T06:30:04.772Z,63.03
2023-05-19T06:31:04.789Z,63.03
2023-05-19T06:32:04.773Z,63.13
2023-05-19T06:33:04.807Z,63.34
2023-05-19T06:34:04.736Z,63.23
2023-05-19T06:35:04.755Z,63.34
2023-05-19T06:36:04.786Z,63.34
2023-05-19T06:37:04.714Z,63.10
2023-05-19T06:38:04.692Z,63.10
2023-05-19T06:39:04.681Z,62.59
2023-05-19T06:40:04.669Z,62.29
2023-05-19T06:41:04.657Z,62.18
2023-05-19T06:42:04.685Z,62.18
2023-05-19T06:43:04.631Z,62.18
2023-05-19T06:44:04.647Z,61.75
2023-05-19T06:45:04.611Z,61.95
2023-05-19T06:46:04.614Z,61.85
2023-05-19T06:47:04.720Z,62.05
2023-05-19T06:48:04.622Z,61.24
2023-05-19T06:49:04.572Z,60.83
2023-05-19T06:50:04.563Z,60.73
2023-05-19T06:51:04.576Z,60.91
2023-05-19T06:52:04.545Z,61.21
2023-05-19T06:53:04.536Z,60.80
2023-05-19T06:54:04.518Z,61.00
2023-05-19T06:55:04.505Z,60.80
2023-05-19T06:56:04.521Z,59.99
2023-05-19T06:57:04.484Z,60.19
2023-05-19T06:58:04.472Z,60.80
2023-05-19T06:59:04.476Z,61.18
2023-05-19T07:00:04.489Z,61.29
2023-05-19T07:01:04.450Z,61.08
2023-05-19T07:02:04.456Z,60.77
2023-05-19T07:03:04.486Z,60.77
2023-05-19T07:04:04.546Z,60.57
2023-05-19T07:05:04.414Z,60.88
2023-05-19T07:06:07.089Z,61.38
2023-05-19T07:07:04.386Z,61.87
2023-05-19T07:08:04.373Z,61.76
2023-05-19T07:09:04.362Z,61.66
2023-05-19T07:10:04.371Z,61.56
2023-05-19T07:11:04.336Z,61.76
2023-05-19T07:12:04.327Z,61.87
2023-05-19T07:13:04.314Z,61.53
2023-05-19T07:14:04.327Z,61.94
2023-05-19T07:15:04.327Z,61.83
2023-05-19T07:16:04.307Z,62.96
2023-05-19T07:17:04.265Z,61.74
2023-05-19T07:18:04.291Z,60.31
2023-05-19T07:19:04.289Z,60.69
2023-05-19T07:20:04.236Z,60.69
2023-05-19T07:21:04.236Z,61.20
2023-05-19T07:22:04.227Z,61.20
2023-05-19T07:23:04.205Z,61.10
2023-05-19T07:24:04.216Z,59.88
2023-05-19T07:25:04.178Z,60.76
2023-05-19T07:26:04.180Z,59.54
2023-05-19T07:27:04.178Z,58.63
2023-05-19T07:28:04.193Z,58.94
2023-05-19T07:29:04.167Z,58.50
2023-05-19T07:30:04.146Z,59.01
2023-05-19T07:31:04.130Z,59.52
2023-05-19T07:32:04.133Z,60.13
2023-05-19T07:33:04.170Z,60.10
2023-05-19T07:34:04.094Z,59.99
2023-05-19T07:35:04.086Z,59.99
2023-05-19T07:36:04.094Z,59.59
2023-05-19T07:37:04.057Z,60.10
2023-05-19T07:38:04.094Z,59.59
2023-05-19T07:39:04.049Z,58.75
2023-05-19T07:40:04.048Z,58.75
2023-05-19T07:41:04.020Z,59.36
2023-05-19T07:42:04.027Z,59.66
2023-05-19T07:43:04.011Z,58.45
2023-05-19T07:44:03.990Z,58.82
2023-05-19T07:45:03.966Z,58.92
2023-05-19T07:46:04.048Z,58.22
2023-05-19T07:47:03.965Z,58.31
2023-05-19T07:48:03.988Z,58.72
2023-05-19T07:49:03.937Z,55.45
2023-05-19T07:50:03.937Z,55.85
2023-05-19T07:51:03.970Z,56.57
2023-05-19T07:52:03.921Z,56.84
2023-05-19T07:53:03.888Z,56.34
2023-05-19T07:54:03.894Z,56.23
2023-05-19T07:55:03.871Z,56.74
2023-05-19T07:56:03.856Z,56.71
2023-05-19T07:57:03.869Z,56.41
2023-05-19T07:58:03.836Z,54.49
2023-05-19T07:59:03.830Z,54.56
2023-05-19T08:00:03.808Z,54.66
2023-05-19T08:01:03.830Z,54.97
2023-05-19T08:02:03.834Z,54.64
2023-05-19T08:03:03.835Z,54.53
2023-05-19T08:04:03.904Z,53.52
2023-05-19T08:05:03.756Z,53.12
2023-05-19T08:06:03.782Z,53.40
2023-05-19T08:07:03.747Z,53.09
2023-05-19T08:08:03.734Z,52.89
2023-05-19T08:09:03.721Z,52.48
2023-05-19T08:10:03.714Z,53.09
2023-05-19T08:11:03.724Z,53.27
2023-05-19T08:12:03.698Z,53.78
2023-05-19T08:13:03.674Z,53.38
2023-05-19T08:14:03.669Z,53.17
2023-05-19T08:15:03.701Z,51.83
2023-05-19T08:16:03.701Z,52.54
2023-05-19T08:17:03.628Z,52.94
2023-05-19T08:18:03.691Z,51.63
2023-05-19T08:19:03.660Z,52.01
2023-05-19T08:20:03.740Z,51.10
2023-05-19T08:21:03.587Z,51.10
2023-05-19T08:22:03.585Z,49.46
2023-05-19T08:23:03.577Z,49.96
2023-05-19T08:24:03.601Z,50.78
2023-05-19T08:25:03.591Z,50.57
2023-05-19T08:26:03.551Z,49.96
2023-05-19T08:27:03.543Z,49.64
2023-05-19T08:28:03.532Z,49.94
2023-05-19T08:29:03.526Z,49.94
2023-05-19T08:30:03.524Z,50.22
2023-05-19T08:31:03.507Z,50.02
2023-05-19T08:32:03.487Z,49.72
2023-05-19T08:33:03.487Z,49.19
2023-05-19T08:34:03.484Z,47.38
2023-05-19T08:35:03.459Z,47.98
2023-05-19T08:36:03.433Z,46.45
2023-05-19T08:37:03.422Z,47.13
2023-05-19T08:38:03.420Z,46.42
2023-05-19T08:39:03.420Z,46.00
2023-05-19T08:40:03.397Z,45.27
2023-05-19T08:41:03.390Z,44.15
2023-05-19T08:42:03.374Z,43.95
2023-05-19T08:43:03.399Z,44.43
2023-05-19T08:44:03.366Z,43.80
2023-05-19T08:45:03.336Z,44.51
2023-05-19T08:46:03.328Z,43.90
2023-05-19T08:47:03.507Z,43.00
2023-05-19T08:48:03.330Z,43.68
2023-05-19T08:49:03.297Z,44.08
2023-05-19T08:50:03.307Z,42.96
2023-05-19T08:51:03.275Z,42.46
2023-05-19T08:52:03.258Z,42.76
2023-05-19T08:53:03.281Z,42.05
2023-05-19T08:54:03.243Z,42.33
2023-05-19T08:55:03.238Z,42.83
2023-05-19T08:56:03.215Z,41.53
2023-05-19T08:57:03.233Z,41.53
2023-05-19T08:58:03.218Z,41.83
2023-05-19T08:59:03.183Z,43.54
2023-05-19T09:00:03.184Z,43.74
2023-05-19T09:01:03.198Z,43.42
2023-05-19T09:02:03.167Z,42.61
2023-05-19T09:03:17.363Z,41.71
2023-05-19T09:04:04.197Z,41.82
2023-05-19T09:05:03.291Z,42.30
2023-05-19T09:06:03.171Z,42.19
2023-05-19T09:07:03.131Z,43.19
2023-05-19T09:08:03.086Z,43.10
2023-05-19T09:09:03.087Z,41.97
2023-05-19T09:10:03.080Z,41.27
2023-05-19T09:11:03.089Z,39.67
2023-05-19T09:12:03.065Z,40.87
2023-05-19T09:13:03.053Z,41.97
2023-05-19T09:14:03.027Z,40.97
2023-05-19T09:15:03.042Z,40.87
2023-05-19T09:16:03.078Z,41.88
2023-05-19T09:17:03.079Z,42.49
2023-05-19T09:18:03.016Z,41.39
2023-05-19T09:19:03.005Z,40.69
2023-05-19T09:20:02.975Z,41.29
2023-05-19T09:21:03.361Z,41.60
2023-05-19T09:22:02.945Z,40.89
2023-05-19T09:23:02.944Z,40.89
2023-05-19T09:24:02.931Z,41.21
2023-05-19T09:25:02.926Z,41.82
2023-05-19T09:26:02.916Z,42.11
2023-05-19T09:27:02.916Z,41.51
2023-05-19T09:28:02.902Z,41.53
2023-05-19T09:29:02.895Z,41.13
2023-05-19T09:30:02.962Z,40.93
2023-05-19T09:31:03.881Z,40.73
2023-05-19T09:32:02.879Z,40.83
2023-05-19T09:33:02.863Z,40.93
2023-05-19T09:34:02.820Z,41.75
2023-05-19T09:35:02.827Z,42.55
2023-05-19T09:36:02.801Z,41.45
2023-05-19T09:37:02.790Z,42.05
2023-05-19T09:38:02.782Z,42.76
2023-05-19T09:39:02.766Z,43.46
2023-05-19T09:40:02.777Z,42.96
2023-05-19T09:41:02.757Z,41.75
2023-05-19T09:42:02.734Z,41.96
2023-05-19T09:43:02.745Z,42.47
2023-05-19T09:44:02.734Z,42.07
2023-05-19T09:45:02.824Z,42.47
2023-05-19T09:46:02.756Z,43.18
2023-05-19T09:47:02.690Z,42.58
2023-05-19T09:48:02.718Z,42.38
2023-05-19T09:49:02.695Z,42.27
2023-05-19T09:50:02.650Z,41.96
2023-05-19T09:51:02.705Z,42.66
2023-05-19T09:52:02.627Z,43.06
2023-05-19T09:53:02.621Z,42.46
2023-05-19T09:54:02.628Z,42.33
2023-05-19T09:55:02.619Z,41.03
2023-05-19T09:56:02.592Z,40.91
2023-05-19T09:57:02.611Z,40.41
2023-05-19T09:58:02.585Z,39.51
2023-05-19T09:59:02.607Z,39.49
2023-05-19T10:00:02.549Z,40.89
2023-05-19T10:01:02.578Z,39.67
2023-05-19T10:02:03.009Z,38.97
2023-05-19T10:03:02.553Z,39.07
2023-05-19T10:04:03.802Z,39.37
2023-05-19T10:05:02.552Z,38.35
2023-05-19T10:06:02.495Z,38.25
2023-05-19T10:07:02.492Z,38.25
2023-05-19T10:08:02.479Z,39.23
2023-05-19T10:09:02.450Z,39.23
2023-05-19T10:10:02.438Z,39.11
2023-05-19T10:11:02.443Z,38.42
2023-05-19T10:12:02.444Z,37.71
2023-05-19T10:13:02.436Z,38.70
2023-05-19T10:14:02.411Z,38.09
2023-05-19T10:15:02.412Z,37.49
2023-05-19T10:16:02.635Z,37.59
2023-05-19T10:17:02.462Z,37.58
2023-05-19T10:18:02.415Z,36.58
2023-05-19T10:19:02.461Z,36.78
2023-05-19T10:20:02.366Z,35.58
2023-05-19T10:21:02.334Z,35.88
2023-05-19T10:22:02.338Z,36.98
2023-05-19T10:23:02.333Z,36.18
2023-05-19T10:24:02.280Z,36.28
2023-05-19T10:25:02.297Z,37.58
2023-05-19T10:26:02.300Z,36.47
2023-05-19T10:27:02.290Z,36.08
2023-05-19T10:28:02.278Z,36.28
2023-05-19T10:29:02.264Z,36.28
2023-05-19T10:30:02.233Z,36.29
2023-05-19T10:31:02.244Z,36.69
2023-05-19T10:32:02.246Z,36.49
2023-05-19T10:33:02.242Z,36.91
2023-05-19T10:34:02.180Z,36.31
2023-05-19T10:35:02.184Z,37.41
2023-05-19T10:36:02.187Z,38.11
2023-05-19T10:37:02.151Z,37.61
2023-05-19T10:38:02.140Z,37.90
2023-05-19T10:39:02.146Z,36.60
2023-05-19T10:40:02.155Z,37.29
2023-05-19T10:41:02.128Z,36.79
2023-05-19T10:42:02.097Z,36.18
2023-05-19T10:43:02.090Z,36.28
2023-05-19T10:44:02.088Z,37.06
2023-05-19T10:45:02.095Z,37.36
2023-05-19T10:46:02.048Z,35.94
2023-05-19T10:47:02.169Z,36.54
2023-05-19T10:48:02.047Z,35.74
2023-05-19T10:49:02.035Z,35.14
2023-05-19T10:50:02.053Z,35.05
2023-05-19T10:51:02.027Z,34.94
2023-05-19T10:52:02.022Z,34.64
2023-05-19T10:53:01.996Z,35.63
2023-05-19T10:54:02.052Z,35.13
2023-05-19T10:55:01.996Z,35.03
2023-05-19T10:56:01.962Z,35.33
2023-05-19T10:57:01.955Z,34.93
2023-05-19T10:58:01.939Z,35.21
2023-05-19T10:59:01.966Z,36.22
2023-05-19T11:00:01.910Z,35.03
2023-05-19T11:01:01.912Z,34.33
2023-05-19T11:02:01.914Z,34.63
2023-05-19T11:03:01.923Z,34.94
2023-05-19T11:04:01.920Z,34.55
2023-05-19T11:05:01.873Z,34.44
2023-05-19T11:06:01.844Z,34.34
2023-05-19T11:07:01.850Z,34.75
2023-05-19T11:08:01.860Z,35.14
2023-05-19T11:09:01.900Z,36.34
2023-05-19T11:10:01.820Z,35.94
2023-05-19T11:11:01.820Z,36.74
2023-05-19T11:12:01.793Z,37.32
2023-05-19T11:13:01.798Z,37.02
2023-05-19T11:14:01.795Z,35.63
2023-05-19T11:15:01.776Z,35.23
2023-05-19T11:16:01.744Z,35.21
2023-05-19T11:17:01.814Z,36.01
2023-05-19T11:18:01.805Z,35.31
2023-05-19T11:19:01.798Z,34.69
2023-05-19T11:20:01.711Z,34.59
2023-05-19T11:21:01.705Z,35.10
2023-05-19T11:22:01.735Z,34.38
2023-05-19T11:23:01.761Z,35.08
2023-05-19T11:24:01.730Z,34.48
2023-05-19T11:25:01.651Z,33.88
2023-05-19T11:26:01.665Z,33.68
2023-05-19T11:27:01.647Z,33.48
2023-05-19T11:28:01.625Z,33.58
2023-05-19T11:29:01.609Z,33.08
2023-05-19T11:30:01.611Z,33.18
2023-05-19T11:31:01.585Z,33.40
2023-05-19T11:32:01.631Z,33.20
2023-05-19T11:33:01.596Z,33.70
2023-05-19T11:34:01.554Z,33.40
2023-05-19T11:35:01.561Z,33.50
2023-05-19T11:36:01.549Z,33.40
2023-05-19T11:37:01.543Z,33.70
2023-05-19T11:38:01.511Z,33.40
2023-05-19T11:39:01.513Z,33.60
2023-05-19T11:40:01.536Z,34.39
2023-05-19T11:41:01.502Z,33.98
2023-05-19T11:42:01.470Z,34.18
2023-05-19T11:43:01.468Z,33.58
2023-05-19T11:44:01.458Z,33.78
2023-05-19T11:45:01.458Z,34.18
2023-05-19T11:46:01.510Z,33.98
2023-05-19T11:47:01.422Z,34.08
2023-05-19T11:48:03.068Z,32.98
2023-05-19T11:49:01.405Z,32.39
2023-05-19T11:50:01.423Z,32.78
2023-05-19T11:51:01.422Z,33.28
2023-05-19T11:52:01.365Z,33.98
2023-05-19T11:53:01.680Z,32.98
2023-05-19T11:54:01.337Z,32.09
2023-05-19T11:55:01.363Z,32.59
2023-05-19T11:56:01.318Z,33.08
2023-05-19T11:57:01.318Z,32.18
2023-05-19T11:58:05.168Z,33.18
2023-05-19T11:59:01.306Z,32.18
2023-05-19T12:00:01.315Z,32.68
2023-05-19T12:01:01.269Z,33.28
2023-05-19T12:02:01.272Z,32.68
2023-05-19T12:03:01.362Z,33.58
2023-05-19T12:04:01.264Z,32.18
2023-05-19T12:05:01.297Z,32.39
2023-05-19T12:06:01.251Z,33.37
2023-05-19T12:07:01.204Z,33.37
2023-05-19T12:08:01.203Z,33.37
2023-05-19T12:09:01.199Z,32.47
2023-05-19T12:10:01.216Z,31.87
2023-05-19T12:11:01.177Z,32.17
2023-05-19T12:12:01.182Z,31.27
2023-05-19T12:13:01.146Z,30.98
2023-05-19T12:14:01.169Z,30.88
2023-05-19T12:15:01.121Z,30.40
2023-05-19T12:16:01.149Z,30.89
2023-05-19T12:17:01.113Z,31.01
2023-05-19T12:18:01.127Z,31.81
2023-05-19T12:19:01.157Z,32.00
2023-05-19T12:20:01.072Z,31.92
2023-05-19T12:21:01.079Z,32.02
2023-05-19T12:22:02.228Z,32.32
2023-05-19T12:23:01.204Z,32.92
2023-05-19T12:24:01.064Z,33.72
2023-05-19T12:25:01.025Z,33.31
2023-05-19T12:26:01.007Z,32.92
2023-05-19T12:27:00.999Z,33.01
2023-05-19T12:28:01.033Z,33.72
2023-05-19T12:29:00.986Z,34.81
2023-05-19T12:30:00.968Z,33.01
2023-05-19T12:31:00.955Z,32.82
2023-05-19T12:32:01.025Z,33.61
2023-05-19T12:33:00.985Z,34.43
2023-05-19T12:34:00.922Z,33.31
2023-05-19T12:35:00.919Z,33.13
2023-05-19T12:36:00.896Z,33.63
2023-05-19T12:37:00.965Z,34.13
2023-05-19T12:38:00.879Z,34.93
2023-05-19T12:39:00.879Z,34.43
2023-05-19T12:40:00.869Z,33.63
2023-05-19T12:41:00.847Z,33.93
2023-05-19T12:42:00.887Z,34.03
2023-05-19T12:43:00.830Z,35.33
2023-05-19T12:44:00.810Z,35.03
2023-05-19T12:45:02.962Z,34.93
2023-05-19T12:46:00.880Z,34.83
2023-05-19T12:47:00.803Z,34.13
2023-05-19T12:48:00.846Z,34.14
2023-05-19T12:49:00.799Z,34.44
2023-05-19T12:50:00.765Z,34.64
2023-05-19T12:51:00.787Z,34.05
2023-05-19T12:52:02.649Z,34.75